Observations for SYDNEY INTL AIRPORT, Australia (YSSY)

YSSY 191300Z 20015KT 7000 -SHRA BKN012 BKN016 19/18 Q1012   
YSSY 191300Z 20015KT 7000 -SHRA BKN012 BKN016 19/18 Q1012
YSSY 191300Z 20015KT 7000 -SHRA BKN012 BKN016 19/18 Q1012 FM1330 20014KT 9999 -SHRA FEW010 SCT015 BKN020 INTER 1300/1500 5000 SHRA BKN010
YSSY 191230Z 20017KT 7000 -SHRA BKN012 BKN017 19/19 Q1012 FM1300 20015KT 9999 -SHRA FEW010 SCT015 BKN020 INTER 1230/1430 5000 SHRA BKN010   
YSSY 191230Z 20017KT 7000 -SHRA BKN012 BKN017 19/19 Q1012
YSSY 191230Z 20017KT 7000 -SHRA BKN012 BKN017 19/19 Q1012 FM1300 20015KT 9999 -SHRA FEW010 SCT015 BKN020 INTER 1230/1430 5000 SHRA BKN010
YSSY 191209Z 20017KT 6000 -SHRA FEW008 BKN012 BKN017 19/18 Q1012
YSSY 191200Z 20016KT 8000 -SHRA FEW008 BKN014 BKN017 19/18 Q1012
YSSY 191200Z 20016KT 8000 -SHRA FEW008 BKN014 BKN017 19/18 Q1012
YSSY 191200Z 20016KT 8000 -SHRA FEW008 BKN014 BKN017 19/18 Q1012 FM1230 20014KT9999 -SHRA FEW010 SCT015 BKN020 INTER 1200/1400 5000 SHRA BKN010
YSSY 191130Z 20015G25KT 9999 VCSH FEW009 BKN014 BKN018 20/19 Q1012 FM1200 20014KT 9999 -SHRA FEW010 SCT015 BKN020 INTER 1130/1400 5000 SHRA BKN010  
YSSY 191130Z 20015G25KT 9999 VCSH FEW009 BKN014 BKN018 20/19 Q1012
YSSY 191130Z 20015G25KT 9999 VCSH FEW009 BKN014 BKN018 20/19 Q1012 FM1200 20014KT 9999 -SHRA FEW010 SCT015 BKN020 INTER 1130/1400 5000 SHRA BKN010
YSSY 191117Z 20015G25KT 9999 VCSH FEW007 BKN014 BKN018 20/19 Q1012
YSSY 191117Z 20015G25KT 9999 VCSH FEW007 BKN014 BKN018 20/19 Q1012 FM1200 20014KT 9999 -SHRA FEW010 SCT015 BKN020 INTER 1117/1400 5000 SHRA BKN010
YSSY 191100Z 21017KT 8000 -DZ SCT009 BKN014 20/19 Q1012 
YSSY 191100Z 21017KT 8000 -DZ SCT009 BKN014 20/19 Q1012
YSSY 191100Z 21017KT 8000 -DZ SCT009 BKN014 20/19 Q1012 FM1130 20016KT 9999 -SHRA FEW010 SCT015 BKN020 INTER 1100/1400 5000 SHRA BKN010
YSSY 191030Z 20017KT 6000 -RA FEW007 BKN014 BKN018 20/18 Q1012  
YSSY 191030Z 20017KT 6000 -RA FEW007 BKN014 BKN018 20/18 Q1012
YSSY 191030Z 20017KT 6000 -RA FEW007 BKN014 BKN018 20/18 Q1012 FM1100 20018KT 9999 -SHRA FEW010 SCT015 BKN020 INTER 1030/1330 5000 SHRA BKN010
YSSY 191012Z 20018KT 6000 DZ FEW007 BKN014 BKN020 20/19 Q1011
YSSY 191012Z 20018KT 6000 DZ FEW007 BKN014 BKN020 20/19 Q1011 FM1030 20018KT 9999 -SHRA FEW010 BKN020
YSSY 191050Z 20017G28KT 6000 -RA SCT007 BKN014 20/19 Q1012
YSSY 191050Z 20017G28KT 6000 -RA SCT007 BKN014 20/19 Q1012 FM1115 20016KT 9999 -SHRA FEW010 SCT015 BKN020 INTER 1050/1350 5000 SHRA BKN010
YSSY 191000Z 20018KT 9999 VCSH FEW014 SCT020 BKN025 20/19 Q1011 NOSIG   
YSSY 190930Z 20018KT 9999 FEW008 SCT018 BKN025 20/19 Q1011 NOSIG
YSSY 190900Z 20018KT 9999 FEW018 SCT025 BKN030 21/19 Q1010 NOSIG
YSSY 190830Z 20019KT 9999 FEW015 SCT020 BKN030 21/19 Q1010 NOSIG
YSSY 190800Z 19020KT 9999 FEW015 SCT020 BKN028 22/19 Q1009 NOSIG
YSSY 190730Z 19022KT 9999 FEW015 SCT020 BKN025 22/19 Q1008 FM0730 MOD TURB BLW 5000FT TILL 0800 
YSSY 190700Z 19021KT 9999 FEW015 SCT020 BKN025 22/19 Q1008 FM0700 MOD TURB BLW 5000FT TILL 0800 
YSSY 190630Z 19022KT 9999 FEW015 SCT024 BKN030 22/19 Q1007 FM0630 MOD TURB BLW 5000FT TILL 0800 
YSSY 190600Z 19023KT 9999 FEW015 BKN025 23/19 Q1007 FM0600 MOD TURB BLW 5000FT TILL 0800
YSSY 190530Z 19025KT 9999 FEW018 SCT025 23/19 Q1006 FM0500 MOD TURB BLW 5000FT TILL 0800
YSSY 190500Z 18025KT 9999 VCSH SCT015 BKN160 FEW080TCU 23/20 Q1006 FM0500 MOD TURB BLW 5000FT   
YSSY 190500Z 18025KT 9999 VCSH SCT015 BKN160 FEW080TCU 23/20 Q1006 20KT FM0500 MOD TURB BLW 5000FT
YSSY 190430Z 18027KT 9999 VCSH FEW015 SCT120 FEW080TCU 23/19 Q1006 20KT FM0430 MOD TURB BLW 5000FT  
YSSY 190400Z 18023KT 9999 VCSH FEW016 SCT140 FEW080TCU 23/19 Q1006 25KT FM0400 MOD TURB BLW 5000FT  
YSSY 190400Z 18023KT 9999 VCSH FEW016 SCT140 FEW080TCU 23/19 Q1006 FM0400 MOD TURB BLW 5000FT
YSSY 190330Z 18025KT 9999 VCSH FEW016 SCT150 FEW080TCU 23/19 Q1007 FM0330 MOD TURB BLW 5000FT   
YSSY 190300Z 18024KT 9999 FEW016 SCT200 23/20 Q1006 FM0300 MOD TURB BLW 5000FT  
YSSY 190300Z 18024KT 9999 FEW016 SCT200 23/20 Q1006 AT 25KT FM0300 MOD TURB BLW5000FT
YSSY 190237Z 18023G33KT 9999 FEW016 23/19 Q1006
YSSY 190237Z 18023G33KT 9999 FEW016 23/19 Q1006 FM0237 MOD TURB BLW 5000FT
YSSY 190230Z 18023KT 9999 FEW016 23/19 Q1007 FM0230 MOD TURB BLW 5000FT 
YSSY 190200Z 18025KT 9999 FEW016 24/20 Q1006 FM0200 MOD TURB BLW 5000FT 
YSSY 190130Z 18023KT 9999 FEW016 23/19 Q1006 FM0100 MOD TURB BLW 5000FT 
YSSY 190152Z 18023G33KT 9999 FEW016 23/19 Q1007
YSSY 190152Z 18023G33KT 9999 FEW016 23/19 Q1007 FM0152 MOD TURB BLW 5000FT
YSSY 190100Z 18023KT 9999 FEW016 23/20 Q1006 FM0100 MOD TURB BLW 5000FT 
YSSY 190030Z 18020KT 9999 FEW016 SCT190 23/19 Q1006 FM0030 MOD TURB BLW 5000FT  
YSSY 190000Z 18020KT 9999 FEW016 SCT190 25/20 Q1006 FM0000 MOD TURB BLW 5000FT  
YSSY 182330Z 18014KT 9999 FEW025 SCT190 25/20 Q1006 FM2330 MOD TURB BLW 5000FT  
YSSY 182300Z 19006KT 9999 FEW025 SCT190 25/20 Q1006 FM0000 17020G30KT 9999 -SHRA SCT015 BKN025 FM2300 MOD TURB BLW 5000FT   
YSSY 182230Z 23004KT 160V300 CAVOK 26/19 Q1005 FM2300 18015KT 9999 FEW015 FM0000 17020G30KT 9999 -SHRA SCT015 BKN025 FM2230 MOD TURB BLW 5000FT 
YSSY 182200Z 29005KT 9999 FEW018 SCT190 26/19 Q1005 FM2215 18015KT 9999 FEW015 FM0000 17020G30KT 9999 -SHRA SCT015 BKN025 FM2215 MOD TURB BLW 5000FT
YSSY 182130Z 30007KT CAVOK 26/19 Q1005 FM2145 18020KT 9999 FEW010 FM0000 17020G30KT 9999 -SHRA SCT015 BKN025 FM2145 MOD TURB BLW 5000FT 
YSSY 182100Z 33009KT CAVOK 25/20 Q1005 FM2145 18020KT 9999 FEW010 FM2145 MOD TURB BLW 5000FT
YSSY 182030Z 01011KT CAVOK 25/20 Q1005 FM2145 18020KT 9999 SCT010 FM2145 MOD TURB BLW 5000FT
YSSY 182000Z 36010KT CAVOK 24/20 Q1005 FM2145 18020KT 9999 SCT010 FM2145 MOD TURB BLW 5000FT
YSSY 181930Z 02010KT CAVOK 24/20 Q1005 FM2145 18020KT 9999 SCT010 FM2145 MOD TURB BLW 5000FT
YSSY 181900Z 36009KT 9999 FEW012 BKN150 BKN180 24/20 Q1005 FM2130 18020KT 9999 SCT010 FM2130 MOD TURB BLW 5000FT
YSSY 181830Z 01007KT CAVOK 24/20 Q1005 NOSIG
YSSY 181800Z 04013KT CAVOK 24/20 Q1004 NOSIG
YSSY 181730Z 05016KT CAVOK 23/20 Q1004 NOSIG
YSSY 181700Z 08016KT CAVOK 23/20 Q1005 NOSIG
YSSY 181657Z 08017KT 9999 -RA NSC 23/20 Q1005
YSSY 181630Z 10007KT 020V120 CAVOK 23/21 Q1007 NOSIG
YSSY 181657Z 08017KT 9999 -RA NSC 23/20 Q1005
YSSY 181600Z 22009KT 200V280 CAVOK 23/21 Q1007 NOSIG
YSSY 181530Z 17004KT CAVOK 23/20 Q1007 FM1630 35008KT 9999 -SHRA BKN090 
YSSY 181500Z 12003KT CAVOK 23/20 Q1007 FM1600 35008KT 9999 -SHRA BKN090 
YSSY 181430Z 12007KT 040V150 CAVOK 23/20 Q1006 FM1600 35008KT 9999 -SHRA BKN090 
YSSY 181400Z 16008KT CAVOK 23/21 Q1007 FM1600 35008KT CAVOK 
YSSY 181330Z 18009KT CAVOK 23/20 Q1007 FM1500 35008KT CAVOK 
YSSY 181300Z 13010KT CAVOK 24/19 Q1007 FM1400 35008KT CAVOK 
YSSY 181230Z 18009KT CAVOK 24/19 Q1007